sensor_id;sensor_type;location;lat;lon;timestamp;temperature;humidity
32907;DHT22;19259;51.590;5.320;2022-12-01T00:01:27;5.40;99.90
32907;DHT22;19259;51.590;5.320;2022-12-01T00:03:55;5.40;99.90
32907;DHT22;19259;51.590;5.320;2022-12-01T00:06:22;5.40;99.90
32907;DHT22;19259;51.590;5.320;2022-12-01T00:08:50;5.40;99.90
32907;DHT22;19259;51.590;5.320;2022-12-01T00:11:36;5.40;99.90
32907;DHT22;19259;51.590;5.320;2022-12-01T00:14:05;5.40;99.90
32907;DHT22;19259;51.590;5.320;2022-12-01T00:16:33;5.50;99.90
32907;DHT22;19259;51.590;5.320;2022-12-01T00:19:03;5.40;99.90
32907;DHT22;19259;51.590;5.320;2022-12-01T00:21:31;5.40;99.90
32907;DHT22;19259;51.590;5.320;2022-12-01T00:23:59;5.40;99.90
32907;DHT22;19259;51.590;5.320;2022-12-01T00:26:26;5.40;99.90
32907;DHT22;19259;51.590;5.320;2022-12-01T00:28:57;5.40;99.90
32907;DHT22;19259;51.590;5.320;2022-12-01T00:31:25;5.40;99.90
32907;DHT22;19259;51.590;5.320;2022-12-01T00:33:54;5.40;99.90
32907;DHT22;19259;51.590;5.320;2022-12-01T00:36:22;5.40;99.90
32907;DHT22;19259;51.590;5.320;2022-12-01T00:38:54;5.40;99.90
32907;DHT22;19259;51.590;5.320;2022-12-01T00:41:23;5.40;99.90
32907;DHT22;19259;51.590;5.320;2022-12-01T00:43:51;5.40;99.90
32907;DHT22;19259;51.590;5.320;2022-12-01T00:46:19;5.40;99.90
32907;DHT22;19259;51.590;5.320;2022-12-01T00:48:51;5.40;99.90
32907;DHT22;19259;51.590;5.320;2022-12-01T00:51:18;5.40;99.90
32907;DHT22;19259;51.590;5.320;2022-12-01T00:53:46;5.50;99.90
32907;DHT22;19259;51.590;5.320;2022-12-01T00:56:15;5.50;99.90
32907;DHT22;19259;51.590;5.320;2022-12-01T00:58:43;5.50;99.90
32907;DHT22;19259;51.590;5.320;2022-12-01T01:01:10;5.50;99.90
32907;DHT22;19259;51.590;5.320;2022-12-01T01:03:38;5.40;99.90
32907;DHT22;19259;51.590;5.320;2022-12-01T01:06:10;5.40;99.90
32907;DHT22;19259;51.590;5.320;2022-12-01T01:08:42;5.40;99.90
32907;DHT22;19259;51.590;5.320;2022-12-01T01:11:09;5.40;99.90
32907;DHT22;19259;51.590;5.320;2022-12-01T01:13:37;5.40;99.90
32907;DHT22;19259;51.590;5.320;2022-12-01T01:16:09;5.50;99.90
32907;DHT22;19259;51.590;5.320;2022-12-01T01:18:36;5.40;99.90
32907;DHT22;19259;51.590;5.320;2022-12-01T01:21:06;5.50;99.90
32907;DHT22;19259;51.590;5.320;2022-12-01T01:23:39;5.40;99.90
32907;DHT22;19259;51.590;5.320;2022-12-01T01:26:06;5.50;99.90
32907;DHT22;19259;51.590;5.320;2022-12-01T01:28:34;5.40;99.90
32907;DHT22;19259;51.590;5.320;2022-12-01T01:31:09;5.40;99.90
32907;DHT22;19259;51.590;5.320;2022-12-01T01:33:37;5.40;99.90
32907;DHT22;19259;51.590;5.320;2022-12-01T01:36:05;5.50;99.90
32907;DHT22;19259;51.590;5.320;2022-12-01T01:38:35;5.50;99.90
32907;DHT22;19259;51.590;5.320;2022-12-01T01:41:04;5.50;99.90
32907;DHT22;19259;51.590;5.320;2022-12-01T01:43:52;5.50;99.90
32907;DHT22;19259;51.590;5.320;2022-12-01T01:46:26;5.50;99.90
32907;DHT22;19259;51.590;5.320;2022-12-01T01:48:59;5.40;99.90
32907;DHT22;19259;51.590;5.320;2022-12-01T01:51:36;5.40;99.90
32907;DHT22;19259;51.590;5.320;2022-12-01T01:54:07;5.50;99.90
32907;DHT22;19259;51.590;5.320;2022-12-01T01:56:35;5.40;99.90
32907;DHT22;19259;51.590;5.320;2022-12-01T01:59:03;5.40;99.90
32907;DHT22;19259;51.590;5.320;2022-12-01T02:01:31;5.40;99.90
32907;DHT22;19259;51.590;5.320;2022-12-01T02:04:00;5.40;99.90
32907;DHT22;19259;51.590;5.320;2022-12-01T02:06:29;5.40;99.90
32907;DHT22;19259;51.590;5.320;2022-12-01T02:08:56;5.40;99.90
32907;DHT22;19259;51.590;5.320;2022-12-01T02:14:07;5.40;99.90
32907;DHT22;19259;51.590;5.320;2022-12-01T02:19:39;5.40;99.90
32907;DHT22;19259;51.590;5.320;2022-12-01T02:22:07;5.50;99.90
32907;DHT22;19259;51.590;5.320;2022-12-01T02:24:50;5.50;99.90
32907;DHT22;19259;51.590;5.320;2022-12-01T02:30:38;5.50;99.90
32907;DHT22;19259;51.590;5.320;2022-12-01T02:36:13;5.40;99.90
32907;DHT22;19259;51.590;5.320;2022-12-01T02:41:26;5.40;99.90
32907;DHT22;19259;51.590;5.320;2022-12-01T02:44:02;5.40;99.90
32907;DHT22;19259;51.590;5.320;2022-12-01T02:46:36;5.40;99.90
32907;DHT22;19259;51.590;5.320;2022-12-01T02:49:10;5.40;99.90
32907;DHT22;19259;51.590;5.320;2022-12-01T02:51:39;5.40;99.90
32907;DHT22;19259;51.590;5.320;2022-12-01T02:54:12;5.40;99.90
32907;DHT22;19259;51.590;5.320;2022-12-01T02:56:44;5.50;99.90
32907;DHT22;19259;51.590;5.320;2022-12-01T02:59:13;5.40;99.90
32907;DHT22;19259;51.590;5.320;2022-12-01T03:02:06;5.40;99.90
32907;DHT22;19259;51.590;5.320;2022-12-01T03:07:17;5.50;99.90
32907;DHT22;19259;51.590;5.320;2022-12-01T03:12:49;5.50;99.90
32907;DHT22;19259;51.590;5.320;2022-12-01T03:15:35;5.50;99.90
32907;DHT22;19259;51.590;5.320;2022-12-01T03:18:30;5.50;99.90
32907;DHT22;19259;51.590;5.320;2022-12-01T03:21:05;5.50;99.90
32907;DHT22;19259;51.590;5.320;2022-12-01T03:23:34;5.50;99.90
32907;DHT22;19259;51.590;5.320;2022-12-01T03:26:05;5.50;99.90
32907;DHT22;19259;51.590;5.320;2022-12-01T03:28:42;5.50;99.90
32907;DHT22;19259;51.590;5.320;2022-12-01T03:31:09;5.50;99.90
32907;DHT22;19259;51.590;5.320;2022-12-01T03:33:39;5.50;99.90
32907;DHT22;19259;51.590;5.320;2022-12-01T03:36:24;5.50;99.90
32907;DHT22;19259;51.590;5.320;2022-12-01T03:38:55;5.40;99.90
32907;DHT22;19259;51.590;5.320;2022-12-01T03:41:27;5.50;99.90
32907;DHT22;19259;51.590;5.320;2022-12-01T03:44:00;5.40;99.90
32907;DHT22;19259;51.590;5.320;2022-12-01T03:46:38;5.40;99.90
32907;DHT22;19259;51.590;5.320;2022-12-01T03:49:06;5.50;99.90
32907;DHT22;19259;51.590;5.320;2022-12-01T03:51:52;5.50;99.90
32907;DHT22;19259;51.590;5.320;2022-12-01T03:54:23;5.40;99.90
32907;DHT22;19259;51.590;5.320;2022-12-01T03:56:54;5.40;99.90
32907;DHT22;19259;51.590;5.320;2022-12-01T03:59:24;5.50;99.90
32907;DHT22;19259;51.590;5.320;2022-12-01T04:01:52;5.50;99.90
32907;DHT22;19259;51.590;5.320;2022-12-01T04:04:20;5.50;99.90
32907;DHT22;19259;51.590;5.320;2022-12-01T04:06:49;5.50;99.90
32907;DHT22;19259;51.590;5.320;2022-12-01T04:09:17;5.50;99.90
32907;DHT22;19259;51.590;5.320;2022-12-01T04:11:44;5.40;99.90
32907;DHT22;19259;51.590;5.320;2022-12-01T04:14:30;5.50;99.90
32907;DHT22;19259;51.590;5.320;2022-12-01T04:16:57;5.50;99.90
32907;DHT22;19259;51.590;5.320;2022-12-01T04:19:25;5.50;99.90
32907;DHT22;19259;51.590;5.320;2022-12-01T04:21:53;5.50;99.90
32907;DHT22;19259;51.590;5.320;2022-12-01T04:24:20;5.50;99.90
32907;DHT22;19259;51.590;5.320;2022-12-01T04:26:48;5.50;99.90
32907;DHT22;19259;51.590;5.320;2022-12-01T04:29:15;5.50;99.90
32907;DHT22;19259;51.590;5.320;2022-12-01T04:31:44;5.50;99.90
32907;DHT22;19259;51.590;5.320;2022-12-01T04:34:12;5.40;99.90
32907;DHT22;19259;51.590;5.320;2022-12-01T04:36:40;5.40;99.90
32907;DHT22;19259;51.590;5.320;2022-12-01T04:39:09;5.40;99.90
32907;DHT22;19259;51.590;5.320;2022-12-01T04:41:36;5.40;99.90
32907;DHT22;19259;51.590;5.320;2022-12-01T04:44:04;5.30;99.90
32907;DHT22;19259;51.590;5.320;2022-12-01T04:46:31;5.30;99.90
32907;DHT22;19259;51.590;5.320;2022-12-01T04:48:59;5.40;99.90
32907;DHT22;19259;51.590;5.320;2022-12-01T04:51:26;5.40;99.90
32907;DHT22;19259;51.590;5.320;2022-12-01T04:53:55;5.40;99.90
32907;DHT22;19259;51.590;5.320;2022-12-01T04:56:25;5.40;99.90
32907;DHT22;19259;51.590;5.320;2022-12-01T04:58:52;5.30;99.90
32907;DHT22;19259;51.590;5.320;2022-12-01T05:01:20;5.30;99.90
32907;DHT22;19259;51.590;5.320;2022-12-01T05:03:48;5.30;99.90
32907;DHT22;19259;51.590;5.320;2022-12-01T05:06:18;5.30;99.90
32907;DHT22;19259;51.590;5.320;2022-12-01T05:08:46;5.30;99.90
32907;DHT22;19259;51.590;5.320;2022-12-01T05:11:14;5.30;99.90
32907;DHT22;19259;51.590;5.320;2022-12-01T05:13:44;5.30;99.90
32907;DHT22;19259;51.590;5.320;2022-12-01T05:16:14;5.30;99.90
32907;DHT22;19259;51.590;5.320;2022-12-01T05:18:49;5.30;99.90
32907;DHT22;19259;51.590;5.320;2022-12-01T05:21:17;5.30;99.90
32907;DHT22;19259;51.590;5.320;2022-12-01T05:23:45;5.30;99.90
32907;DHT22;19259;51.590;5.320;2022-12-01T05:26:12;5.40;99.90
32907;DHT22;19259;51.590;5.320;2022-12-01T05:28:40;5.30;99.90
32907;DHT22;19259;51.590;5.320;2022-12-01T05:31:07;5.40;99.90
32907;DHT22;19259;51.590;5.320;2022-12-01T05:33:35;5.30;99.90
32907;DHT22;19259;51.590;5.320;2022-12-01T05:36:02;5.40;99.90
32907;DHT22;19259;51.590;5.320;2022-12-01T05:38:33;5.40;99.90
32907;DHT22;19259;51.590;5.320;2022-12-01T05:40:59;5.40;99.90
32907;DHT22;19259;51.590;5.320;2022-12-01T05:43:27;5.40;99.90
32907;DHT22;19259;51.590;5.320;2022-12-01T05:45:55;5.40;99.90
32907;DHT22;19259;51.590;5.320;2022-12-01T05:48:23;5.40;99.90
32907;DHT22;19259;51.590;5.320;2022-12-01T05:50:50;5.40;99.90
32907;DHT22;19259;51.590;5.320;2022-12-01T05:53:20;5.40;99.90
32907;DHT22;19259;51.590;5.320;2022-12-01T05:55:54;5.40;99.90
32907;DHT22;19259;51.590;5.320;2022-12-01T05:58:22;5.30;99.90
32907;DHT22;19259;51.590;5.320;2022-12-01T06:00:49;5.30;99.90
32907;DHT22;19259;51.590;5.320;2022-12-01T06:03:17;5.30;99.90
32907;DHT22;19259;51.590;5.320;2022-12-01T06:05:44;5.40;99.90
32907;DHT22;19259;51.590;5.320;2022-12-01T06:08:12;5.40;99.90
32907;DHT22;19259;51.590;5.320;2022-12-01T06:10:39;5.40;99.90
32907;DHT22;19259;51.590;5.320;2022-12-01T06:13:07;5.40;99.90
32907;DHT22;19259;51.590;5.320;2022-12-01T06:15:35;5.40;99.90
32907;DHT22;19259;51.590;5.320;2022-12-01T06:18:02;5.40;99.90
32907;DHT22;19259;51.590;5.320;2022-12-01T06:20:30;5.40;99.90
32907;DHT22;19259;51.590;5.320;2022-12-01T06:22:58;5.40;99.90
32907;DHT22;19259;51.590;5.320;2022-12-01T06:25:25;5.40;99.90
32907;DHT22;19259;51.590;5.320;2022-12-01T06:27:57;5.40;99.90
32907;DHT22;19259;51.590;5.320;2022-12-01T06:30:25;5.40;99.90
32907;DHT22;19259;51.590;5.320;2022-12-01T06:32:52;5.40;99.90
32907;DHT22;19259;51.590;5.320;2022-12-01T06:35:20;5.40;99.90
32907;DHT22;19259;51.590;5.320;2022-12-01T06:37:48;5.40;99.90
32907;DHT22;19259;51.590;5.320;2022-12-01T06:40:15;5.40;99.90
32907;DHT22;19259;51.590;5.320;2022-12-01T06:42:43;5.50;99.90
32907;DHT22;19259;51.590;5.320;2022-12-01T06:45:12;5.50;99.90
32907;DHT22;19259;51.590;5.320;2022-12-01T06:47:41;5.40;99.90
32907;DHT22;19259;51.590;5.320;2022-12-01T06:50:09;5.40;99.90
32907;DHT22;19259;51.590;5.320;2022-12-01T06:52:37;5.40;99.90
32907;DHT22;19259;51.590;5.320;2022-12-01T06:55:05;5.40;99.90
32907;DHT22;19259;51.590;5.320;2022-12-01T06:57:33;5.40;99.90
32907;DHT22;19259;51.590;5.320;2022-12-01T07:00:01;5.40;99.90
32907;DHT22;19259;51.590;5.320;2022-12-01T07:02:29;5.40;99.90
32907;DHT22;19259;51.590;5.320;2022-12-01T07:04:57;5.40;99.90
32907;DHT22;19259;51.590;5.320;2022-12-01T07:07:24;5.40;99.90
32907;DHT22;19259;51.590;5.320;2022-12-01T07:09:52;5.40;99.90
32907;DHT22;19259;51.590;5.320;2022-12-01T07:12:19;5.40;99.90
32907;DHT22;19259;51.590;5.320;2022-12-01T07:14:47;5.40;99.90
32907;DHT22;19259;51.590;5.320;2022-12-01T07:17:14;5.40;99.90
32907;DHT22;19259;51.590;5.320;2022-12-01T07:19:42;5.40;99.90
32907;DHT22;19259;51.590;5.320;2022-12-01T07:22:09;5.50;99.90
32907;DHT22;19259;51.590;5.320;2022-12-01T07:24:37;5.50;99.90
32907;DHT22;19259;51.590;5.320;2022-12-01T07:27:04;5.50;99.90
32907;DHT22;19259;51.590;5.320;2022-12-01T07:29:32;5.50;99.90
32907;DHT22;19259;51.590;5.320;2022-12-01T07:31:59;5.50;99.90
32907;DHT22;19259;51.590;5.320;2022-12-01T07:34:27;5.50;99.90
32907;DHT22;19259;51.590;5.320;2022-12-01T07:36:54;5.50;99.90
32907;DHT22;19259;51.590;5.320;2022-12-01T07:39:26;5.50;99.90
32907;DHT22;19259;51.590;5.320;2022-12-01T07:41:54;5.50;99.90
32907;DHT22;19259;51.590;5.320;2022-12-01T07:44:21;5.50;99.90
32907;DHT22;19259;51.590;5.320;2022-12-01T07:46:49;5.60;99.90
32907;DHT22;19259;51.590;5.320;2022-12-01T07:49:16;5.50;99.90
32907;DHT22;19259;51.590;5.320;2022-12-01T07:51:44;5.50;99.90
32907;DHT22;19259;51.590;5.320;2022-12-01T07:54:12;5.50;99.90
32907;DHT22;19259;51.590;5.320;2022-12-01T07:56:44;5.50;99.90
32907;DHT22;19259;51.590;5.320;2022-12-01T07:59:11;5.50;99.90
32907;DHT22;19259;51.590;5.320;2022-12-01T08:01:39;5.50;99.90
32907;DHT22;19259;51.590;5.320;2022-12-01T08:04:06;5.50;99.90
32907;DHT22;19259;51.590;5.320;2022-12-01T08:06:39;5.40;99.90
32907;DHT22;19259;51.590;5.320;2022-12-01T08:09:03;5.50;99.90
32907;DHT22;19259;51.590;5.320;2022-12-01T08:11:30;5.50;99.90
32907;DHT22;19259;51.590;5.320;2022-12-01T08:13:58;5.50;99.90
32907;DHT22;19259;51.590;5.320;2022-12-01T08:16:25;5.50;99.90
32907;DHT22;19259;51.590;5.320;2022-12-01T08:18:53;5.50;99.90
32907;DHT22;19259;51.590;5.320;2022-12-01T08:21:26;5.60;99.90
32907;DHT22;19259;51.590;5.320;2022-12-01T08:23:55;5.60;99.90
32907;DHT22;19259;51.590;5.320;2022-12-01T08:26:24;5.60;99.90
32907;DHT22;19259;51.590;5.320;2022-12-01T08:28:52;5.50;99.90
32907;DHT22;19259;51.590;5.320;2022-12-01T08:31:26;5.40;99.90
32907;DHT22;19259;51.590;5.320;2022-12-01T08:33:53;5.40;99.90
32907;DHT22;19259;51.590;5.320;2022-12-01T08:36:21;5.40;99.90
32907;DHT22;19259;51.590;5.320;2022-12-01T08:38:54;5.40;99.90
32907;DHT22;19259;51.590;5.320;2022-12-01T08:41:22;5.30;99.90
32907;DHT22;19259;51.590;5.320;2022-12-01T08:43:54;5.30;99.90
32907;DHT22;19259;51.590;5.320;2022-12-01T08:46:34;5.30;99.90
32907;DHT22;19259;51.590;5.320;2022-12-01T08:48:57;5.30;99.90
32907;DHT22;19259;51.590;5.320;2022-12-01T08:51:25;5.40;99.90
32907;DHT22;19259;51.590;5.320;2022-12-01T08:53:54;5.40;99.90
32907;DHT22;19259;51.590;5.320;2022-12-01T08:56:25;5.50;99.90
32907;DHT22;19259;51.590;5.320;2022-12-01T08:58:53;5.50;99.90
32907;DHT22;19259;51.590;5.320;2022-12-01T09:01:21;5.50;99.90
32907;DHT22;19259;51.590;5.320;2022-12-01T09:03:50;5.60;99.90
32907;DHT22;19259;51.590;5.320;2022-12-01T09:06:19;5.50;99.90
32907;DHT22;19259;51.590;5.320;2022-12-01T09:08:47;5.60;99.90
32907;DHT22;19259;51.590;5.320;2022-12-01T09:11:16;5.70;99.90
32907;DHT22;19259;51.590;5.320;2022-12-01T09:13:46;5.70;99.90
32907;DHT22;19259;51.590;5.320;2022-12-01T09:16:15;5.70;99.90
32907;DHT22;19259;51.590;5.320;2022-12-01T09:18:44;5.70;99.90
32907;DHT22;19259;51.590;5.320;2022-12-01T09:21:19;5.70;99.90
32907;DHT22;19259;51.590;5.320;2022-12-01T09:23:45;5.70;99.90
32907;DHT22;19259;51.590;5.320;2022-12-01T09:26:14;5.60;99.90
32907;DHT22;19259;51.590;5.320;2022-12-01T09:28:45;5.70;99.90
32907;DHT22;19259;51.590;5.320;2022-12-01T09:31:15;5.60;99.90
32907;DHT22;19259;51.590;5.320;2022-12-01T09:33:43;5.70;99.90
32907;DHT22;19259;51.590;5.320;2022-12-01T09:36:11;5.60;99.90
32907;DHT22;19259;51.590;5.320;2022-12-01T09:38:39;5.70;99.90
32907;DHT22;19259;51.590;5.320;2022-12-01T09:41:14;5.70;99.90
32907;DHT22;19259;51.590;5.320;2022-12-01T09:43:46;5.70;99.90
32907;DHT22;19259;51.590;5.320;2022-12-01T09:46:17;5.70;99.90
32907;DHT22;19259;51.590;5.320;2022-12-01T09:48:48;5.70;99.90
32907;DHT22;19259;51.590;5.320;2022-12-01T09:51:19;5.80;99.90
32907;DHT22;19259;51.590;5.320;2022-12-01T09:53:57;5.80;99.90
32907;DHT22;19259;51.590;5.320;2022-12-01T09:56:29;5.80;99.90
32907;DHT22;19259;51.590;5.320;2022-12-01T09:58:59;5.80;99.90
32907;DHT22;19259;51.590;5.320;2022-12-01T10:01:40;5.80;99.90
32907;DHT22;19259;51.590;5.320;2022-12-01T10:04:20;5.80;99.90
32907;DHT22;19259;51.590;5.320;2022-12-01T10:06:50;5.80;99.90
32907;DHT22;19259;51.590;5.320;2022-12-01T10:09:28;6.00;99.90
32907;DHT22;19259;51.590;5.320;2022-12-01T10:11:57;6.00;99.90
32907;DHT22;19259;51.590;5.320;2022-12-01T10:14:26;6.10;99.90
32907;DHT22;19259;51.590;5.320;2022-12-01T10:22:48;6.40;99.90
32907;DHT22;19259;51.590;5.320;2022-12-01T10:25:26;6.30;99.90
32907;DHT22;19259;51.590;5.320;2022-12-01T10:30:52;6.30;99.90
32907;DHT22;19259;51.590;5.320;2022-12-01T10:33:29;6.50;99.90
32907;DHT22;19259;51.590;5.320;2022-12-01T10:35:51;6.40;99.90
32907;DHT22;19259;51.590;5.320;2022-12-01T10:38:29;6.30;99.90
32907;DHT22;19259;51.590;5.320;2022-12-01T10:40:54;6.30;99.90
32907;DHT22;19259;51.590;5.320;2022-12-01T10:43:33;6.20;99.90
32907;DHT22;19259;51.590;5.320;2022-12-01T10:46:04;6.10;99.90
32907;DHT22;19259;51.590;5.320;2022-12-01T10:48:31;6.10;99.90
32907;DHT22;19259;51.590;5.320;2022-12-01T10:51:14;6.10;99.90
32907;DHT22;19259;51.590;5.320;2022-12-01T10:53:42;5.90;99.90
32907;DHT22;19259;51.590;5.320;2022-12-01T10:56:15;5.90;99.90
32907;DHT22;19259;51.590;5.320;2022-12-01T10:58:51;5.80;99.90
32907;DHT22;19259;51.590;5.320;2022-12-01T11:01:26;5.80;99.90
32907;DHT22;19259;51.590;5.320;2022-12-01T11:04:42;6.10;99.90
32907;DHT22;19259;51.590;5.320;2022-12-01T11:06:30;6.20;99.90
32907;DHT22;19259;51.590;5.320;2022-12-01T11:09:01;6.40;99.90
32907;DHT22;19259;51.590;5.320;2022-12-01T11:11:31;6.30;99.90
32907;DHT22;19259;51.590;5.320;2022-12-01T11:14:02;6.30;99.90
32907;DHT22;19259;51.590;5.320;2022-12-01T11:19:25;6.40;99.90
32907;DHT22;19259;51.590;5.320;2022-12-01T11:21:51;6.30;99.90
32907;DHT22;19259;51.590;5.320;2022-12-01T11:24:43;6.30;99.90
32907;DHT22;19259;51.590;5.320;2022-12-01T11:27:17;6.30;99.90
32907;DHT22;19259;51.590;5.320;2022-12-01T11:29:42;6.40;99.90
32907;DHT22;19259;51.590;5.320;2022-12-01T11:32:20;6.40;99.90
32907;DHT22;19259;51.590;5.320;2022-12-01T11:37:36;6.30;99.90
32907;DHT22;19259;51.590;5.320;2022-12-01T11:40:08;6.40;99.90
32907;DHT22;19259;51.590;5.320;2022-12-01T11:42:35;6.30;99.90
32907;DHT22;19259;51.590;5.320;2022-12-01T11:47:56;6.10;99.90
32907;DHT22;19259;51.590;5.320;2022-12-01T11:50:58;6.10;99.90
32907;DHT22;19259;51.590;5.320;2022-12-01T11:52:45;6.00;99.90
32907;DHT22;19259;51.590;5.320;2022-12-01T11:57:47;6.00;99.90
32907;DHT22;19259;51.590;5.320;2022-12-01T12:06:15;6.30;99.90
32907;DHT22;19259;51.590;5.320;2022-12-01T12:09:03;6.50;99.90
32907;DHT22;19259;51.590;5.320;2022-12-01T12:11:56;6.70;99.90
32907;DHT22;19259;51.590;5.320;2022-12-01T12:14:21;6.70;99.90
32907;DHT22;19259;51.590;5.320;2022-12-01T12:30:46;7.10;99.90
32907;DHT22;19259;51.590;5.320;2022-12-01T12:33:41;7.10;99.90
32907;DHT22;19259;51.590;5.320;2022-12-01T12:41:41;7.30;99.90
32907;DHT22;19259;51.590;5.320;2022-12-01T12:44:23;7.20;99.90
32907;DHT22;19259;51.590;5.320;2022-12-01T12:46:48;7.10;99.90
32907;DHT22;19259;51.590;5.320;2022-12-01T12:54:55;7.00;99.90
32907;DHT22;19259;51.590;5.320;2022-12-01T12:57:28;7.10;99.90
32907;DHT22;19259;51.590;5.320;2022-12-01T13:02:39;7.20;99.90
32907;DHT22;19259;51.590;5.320;2022-12-01T13:05:15;7.10;99.90
32907;DHT22;19259;51.590;5.320;2022-12-01T13:10:59;6.80;99.90
32907;DHT22;19259;51.590;5.320;2022-12-01T13:16:18;6.80;99.90
32907;DHT22;19259;51.590;5.320;2022-12-01T13:19:00;6.80;99.90
32907;DHT22;19259;51.590;5.320;2022-12-01T13:21:34;6.80;99.90
32907;DHT22;19259;51.590;5.320;2022-12-01T13:24:00;6.90;99.90
32907;DHT22;19259;51.590;5.320;2022-12-01T13:26:29;7.00;99.90
32907;DHT22;19259;51.590;5.320;2022-12-01T13:28:57;7.00;99.90
32907;DHT22;19259;51.590;5.320;2022-12-01T13:31:24;6.90;99.90
32907;DHT22;19259;51.590;5.320;2022-12-01T13:33:58;6.90;99.90
32907;DHT22;19259;51.590;5.320;2022-12-01T13:36:27;6.90;99.90
32907;DHT22;19259;51.590;5.320;2022-12-01T13:39:06;6.80;99.90
32907;DHT22;19259;51.590;5.320;2022-12-01T13:41:35;6.90;99.90
32907;DHT22;19259;51.590;5.320;2022-12-01T13:44:19;6.90;99.90
32907;DHT22;19259;51.590;5.320;2022-12-01T13:46:49;6.80;99.90
32907;DHT22;19259;51.590;5.320;2022-12-01T13:49:38;6.90;99.90
32907;DHT22;19259;51.590;5.320;2022-12-01T13:52:25;7.00;99.90
32907;DHT22;19259;51.590;5.320;2022-12-01T13:57:46;6.80;99.90
32907;DHT22;19259;51.590;5.320;2022-12-01T14:00:33;6.70;99.90
32907;DHT22;19259;51.590;5.320;2022-12-01T14:06:18;6.60;99.90
32907;DHT22;19259;51.590;5.320;2022-12-01T14:08:50;6.70;99.90
32907;DHT22;19259;51.590;5.320;2022-12-01T14:11:26;6.60;99.90
32907;DHT22;19259;51.590;5.320;2022-12-01T14:14:02;6.70;99.90
32907;DHT22;19259;51.590;5.320;2022-12-01T14:16:49;6.70;99.90
32907;DHT22;19259;51.590;5.320;2022-12-01T14:19:46;6.60;99.90
32907;DHT22;19259;51.590;5.320;2022-12-01T14:22:34;6.50;99.90
32907;DHT22;19259;51.590;5.320;2022-12-01T14:25:04;6.50;99.90
32907;DHT22;19259;51.590;5.320;2022-12-01T14:27:41;6.50;99.90
32907;DHT22;19259;51.590;5.320;2022-12-01T14:33:41;6.50;99.90
32907;DHT22;19259;51.590;5.320;2022-12-01T14:39:34;6.50;99.90
32907;DHT22;19259;51.590;5.320;2022-12-01T14:41:59;6.50;99.90
32907;DHT22;19259;51.590;5.320;2022-12-01T14:47:09;6.50;99.90
32907;DHT22;19259;51.590;5.320;2022-12-01T14:54:59;6.60;99.90
32907;DHT22;19259;51.590;5.320;2022-12-01T14:57:39;6.50;99.90
32907;DHT22;19259;51.590;5.320;2022-12-01T15:00:13;6.40;99.90
32907;DHT22;19259;51.590;5.320;2022-12-01T15:02:49;6.30;99.90
32907;DHT22;19259;51.590;5.320;2022-12-01T15:05:14;6.30;99.90
32907;DHT22;19259;51.590;5.320;2022-12-01T15:07:45;6.30;99.90
32907;DHT22;19259;51.590;5.320;2022-12-01T15:10:22;6.30;99.90
32907;DHT22;19259;51.590;5.320;2022-12-01T15:12:51;6.30;99.90
32907;DHT22;19259;51.590;5.320;2022-12-01T15:15:21;6.30;99.90
32907;DHT22;19259;51.590;5.320;2022-12-01T15:17:50;6.20;99.90
32907;DHT22;19259;51.590;5.320;2022-12-01T15:20:33;6.20;99.90
32907;DHT22;19259;51.590;5.320;2022-12-01T15:23:12;6.20;99.90
32907;DHT22;19259;51.590;5.320;2022-12-01T15:25:45;6.20;99.90
32907;DHT22;19259;51.590;5.320;2022-12-01T15:28:16;6.20;99.90
32907;DHT22;19259;51.590;5.320;2022-12-01T15:30:51;6.20;99.90
32907;DHT22;19259;51.590;5.320;2022-12-01T15:33:25;6.20;99.90
32907;DHT22;19259;51.590;5.320;2022-12-01T15:35:52;6.10;99.90
32907;DHT22;19259;51.590;5.320;2022-12-01T15:38:24;6.10;99.90
32907;DHT22;19259;51.590;5.320;2022-12-01T15:40:51;6.10;99.90
32907;DHT22;19259;51.590;5.320;2022-12-01T15:43:21;6.10;99.90
32907;DHT22;19259;51.590;5.320;2022-12-01T15:46:09;6.10;99.90
32907;DHT22;19259;51.590;5.320;2022-12-01T15:48:35;6.10;99.90
32907;DHT22;19259;51.590;5.320;2022-12-01T15:51:15;6.10;99.90
32907;DHT22;19259;51.590;5.320;2022-12-01T15:54:00;6.10;99.90
32907;DHT22;19259;51.590;5.320;2022-12-01T15:56:27;6.10;99.90
32907;DHT22;19259;51.590;5.320;2022-12-01T15:59:07;6.10;99.90
32907;DHT22;19259;51.590;5.320;2022-12-01T16:01:36;6.10;99.90
32907;DHT22;19259;51.590;5.320;2022-12-01T16:04:20;6.10;99.90
32907;DHT22;19259;51.590;5.320;2022-12-01T16:06:36;6.10;99.90
32907;DHT22;19259;51.590;5.320;2022-12-01T16:09:24;6.10;99.90
32907;DHT22;19259;51.590;5.320;2022-12-01T16:14:47;6.10;99.90
32907;DHT22;19259;51.590;5.320;2022-12-01T16:17:08;6.10;99.90
32907;DHT22;19259;51.590;5.320;2022-12-01T16:19:36;6.10;99.90
32907;DHT22;19259;51.590;5.320;2022-12-01T16:24:49;6.10;99.90
32907;DHT22;19259;51.590;5.320;2022-12-01T16:27:30;6.00;99.90
32907;DHT22;19259;51.590;5.320;2022-12-01T16:30:00;6.10;99.90
32907;DHT22;19259;51.590;5.320;2022-12-01T16:32:43;6.00;99.90
32907;DHT22;19259;51.590;5.320;2022-12-01T16:35:26;6.10;99.90
32907;DHT22;19259;51.590;5.320;2022-12-01T16:37:55;6.00;99.90
32907;DHT22;19259;51.590;5.320;2022-12-01T16:40:27;6.00;99.90
32907;DHT22;19259;51.590;5.320;2022-12-01T16:42:55;6.00;99.90
32907;DHT22;19259;51.590;5.320;2022-12-01T16:45:22;6.10;99.90
32907;DHT22;19259;51.590;5.320;2022-12-01T16:47:52;6.00;99.90
32907;DHT22;19259;51.590;5.320;2022-12-01T16:50:20;6.10;99.90
32907;DHT22;19259;51.590;5.320;2022-12-01T16:52:48;6.10;99.90
32907;DHT22;19259;51.590;5.320;2022-12-01T16:58:11;6.00;99.90
32907;DHT22;19259;51.590;5.320;2022-12-01T17:00:38;6.00;99.90
32907;DHT22;19259;51.590;5.320;2022-12-01T17:03:16;6.10;99.90
32907;DHT22;19259;51.590;5.320;2022-12-01T17:05:36;6.10;99.90
32907;DHT22;19259;51.590;5.320;2022-12-01T17:08:04;6.00;99.90
32907;DHT22;19259;51.590;5.320;2022-12-01T17:10:32;6.00;99.90
32907;DHT22;19259;51.590;5.320;2022-12-01T17:12:59;6.00;99.90
32907;DHT22;19259;51.590;5.320;2022-12-01T17:15:27;6.00;99.90
32907;DHT22;19259;51.590;5.320;2022-12-01T17:17:55;6.00;99.90
32907;DHT22;19259;51.590;5.320;2022-12-01T17:20:22;6.00;99.90
32907;DHT22;19259;51.590;5.320;2022-12-01T17:22:50;6.00;99.90
32907;DHT22;19259;51.590;5.320;2022-12-01T17:25:17;6.00;99.90
32907;DHT22;19259;51.590;5.320;2022-12-01T17:27:45;5.90;99.90
32907;DHT22;19259;51.590;5.320;2022-12-01T17:30:15;6.00;99.90
32907;DHT22;19259;51.590;5.320;2022-12-01T17:32:44;6.00;99.90
32907;DHT22;19259;51.590;5.320;2022-12-01T17:35:12;6.00;99.90
32907;DHT22;19259;51.590;5.320;2022-12-01T17:37:39;5.90;99.90
32907;DHT22;19259;51.590;5.320;2022-12-01T17:40:09;5.90;99.90
32907;DHT22;19259;51.590;5.320;2022-12-01T17:42:41;5.90;99.90
32907;DHT22;19259;51.590;5.320;2022-12-01T17:45:09;5.90;99.90
32907;DHT22;19259;51.590;5.320;2022-12-01T17:47:38;5.90;99.90
32907;DHT22;19259;51.590;5.320;2022-12-01T17:50:08;5.90;99.90
32907;DHT22;19259;51.590;5.320;2022-12-01T17:52:40;6.00;99.90
32907;DHT22;19259;51.590;5.320;2022-12-01T17:55:06;5.90;99.90
32907;DHT22;19259;51.590;5.320;2022-12-01T17:57:34;6.00;99.90